createdAt,value
2018-05-06T00:00:53.918Z,100926.86
2018-05-06T00:03:21.314Z,100926.16
2018-05-06T00:05:48.695Z,100926.56
2018-05-06T00:08:16.083Z,100924.90
2018-05-06T00:10:43.478Z,100925.13
2018-05-06T00:13:10.892Z,100926.08
2018-05-06T00:15:38.287Z,100926.56
2018-05-06T00:18:05.684Z,100929.50
2018-05-06T00:20:33.066Z,100930.00
2018-05-06T00:23:00.450Z,100930.97
2018-05-06T00:25:27.844Z,100928.77
2018-05-06T00:27:55.237Z,100924.84
2018-05-06T00:30:22.632Z,100915.47
2018-05-06T00:32:50.019Z,100919.90
2018-05-06T00:35:17.414Z,100913.51
2018-05-06T00:37:44.804Z,100922.76
2018-05-06T00:40:12.205Z,100915.98
2018-05-06T00:42:39.587Z,100915.04
2018-05-06T00:45:06.976Z,100913.08
2018-05-06T00:47:34.373Z,100911.44
2018-05-06T00:50:01.869Z,100915.56
2018-05-06T00:52:29.255Z,100914.43
2018-05-06T00:54:56.642Z,100913.95
2018-05-06T00:57:24.239Z,100918.70
2018-05-06T00:59:51.622Z,100910.55
2018-05-06T01:02:19.181Z,100911.49
2018-05-06T01:04:46.546Z,100916.84
2018-05-06T01:07:13.930Z,100912.97
2018-05-06T01:09:41.324Z,100911.75
2018-05-06T01:12:08.706Z,100918.75
2018-05-06T01:14:36.109Z,100913.21
2018-05-06T01:17:03.494Z,100918.14
2018-05-06T01:19:30.882Z,100917.73
2018-05-06T01:21:58.271Z,100919.48
2018-05-06T01:24:25.670Z,100918.03
2018-05-06T01:26:53.051Z,100918.03
2018-05-06T01:29:20.438Z,100918.27
2018-05-06T01:31:47.836Z,100916.93
2018-05-06T01:34:15.223Z,100915.29
2018-05-06T01:36:42.611Z,100919.61
2018-05-06T01:39:09.999Z,100917.86
2018-05-06T01:41:37.653Z,100909.72
2018-05-06T01:44:05.031Z,100913.03
2018-05-06T01:46:32.435Z,100905.31
2018-05-06T01:48:59.823Z,100911.40
2018-05-06T01:51:27.214Z,100913.05
2018-05-06T01:53:54.654Z,100913.81
2018-05-06T01:56:22.008Z,100913.50
2018-05-06T01:58:49.403Z,100913.00
2018-05-06T02:01:16.796Z,100912.47
2018-05-06T02:03:44.254Z,100908.58
2018-05-06T02:06:11.647Z,100908.99
2018-05-06T02:08:39.047Z,100914.95
2018-05-06T02:11:06.442Z,100913.59
2018-05-06T02:13:33.979Z,100917.41
2018-05-06T02:16:01.379Z,100917.70
2018-05-06T02:18:28.765Z,100913.28
2018-05-06T02:20:56.155Z,100910.83
2018-05-06T02:23:23.542Z,100911.73
2018-05-06T02:25:50.934Z,100908.53
2018-05-06T02:28:18.319Z,100908.88
2018-05-06T02:30:45.712Z,100910.83
2018-05-06T02:33:13.099Z,100915.55
2018-05-06T02:35:40.487Z,100913.78
2018-05-06T02:38:07.875Z,100915.22
2018-05-06T02:40:35.268Z,100920.44
2018-05-06T02:43:02.659Z,100915.28
2018-05-06T02:45:30.106Z,100915.37
2018-05-06T02:47:57.507Z,100913.12
2018-05-06T02:50:24.891Z,100918.89
2018-05-06T02:52:52.543Z,100915.50
2018-05-06T02:55:19.930Z,100915.70
2018-05-06T02:57:47.390Z,100916.84
2018-05-06T03:00:14.787Z,100913.02
2018-05-06T03:02:42.178Z,100917.00
2018-05-06T03:05:09.580Z,100914.25
2018-05-06T03:07:36.959Z,100907.38
2018-05-06T03:10:04.354Z,100916.42
2018-05-06T03:12:31.743Z,100913.33
2018-05-06T03:14:59.135Z,100914.16
2018-05-06T03:17:26.519Z,100907.17
2018-05-06T03:19:53.908Z,100915.78
2018-05-06T03:22:21.299Z,100914.73
2018-05-06T03:24:48.688Z,100908.36
2018-05-06T03:27:16.092Z,100914.30
2018-05-06T03:29:43.478Z,100909.58
2018-05-06T03:32:10.879Z,100912.12
2018-05-06T03:34:38.267Z,100906.02
2018-05-06T03:37:05.664Z,100905.83
2018-05-06T03:39:33.050Z,100908.41
2018-05-06T03:42:00.443Z,100912.58
2018-05-06T03:44:27.826Z,100911.61
2018-05-06T03:46:55.220Z,100914.98
2018-05-06T03:49:22.618Z,100909.33
2018-05-06T03:51:49.998Z,100918.59
2018-05-06T03:54:17.387Z,100916.64
2018-05-06T03:57:05.358Z,100913.55
2018-05-06T03:59:44.580Z,100914.64
2018-05-06T04:05:19.667Z,100914.14
2018-05-06T04:07:47.053Z,100916.25
2018-05-06T04:10:14.444Z,100914.47
2018-05-06T04:12:41.912Z,100917.45
2018-05-06T04:15:09.356Z,100917.20
2018-05-06T04:17:36.750Z,100917.50
2018-05-06T04:20:04.138Z,100918.42
2018-05-06T04:22:31.536Z,100925.41
2018-05-06T04:24:58.918Z,100925.00
2018-05-06T04:27:26.303Z,100925.55
2018-05-06T04:29:53.694Z,100927.38
2018-05-06T04:32:21.086Z,100928.71
2018-05-06T04:34:48.472Z,100925.31
2018-05-06T04:37:15.863Z,100931.67
2018-05-06T04:39:43.258Z,100934.16
2018-05-06T04:42:10.646Z,100934.38
2018-05-06T04:44:38.098Z,100939.33
2018-05-06T04:47:05.491Z,100945.81
2018-05-06T04:49:32.917Z,100945.93
2018-05-06T04:52:00.302Z,100947.61
2018-05-06T04:54:27.691Z,100944.41
2018-05-06T04:56:55.087Z,100942.81
2018-05-06T04:59:22.474Z,100940.59
2018-05-06T05:01:49.866Z,100942.65
2018-05-06T05:04:17.251Z,100949.04
2018-05-06T05:06:45.006Z,100947.84
2018-05-06T05:09:12.390Z,100950.95
2018-05-06T05:11:40.574Z,100954.03
2018-05-06T05:14:07.979Z,100949.75
2018-05-06T05:16:35.363Z,100954.19
2018-05-06T05:19:02.747Z,100956.77
2018-05-06T05:21:30.134Z,100954.30
2018-05-06T05:23:57.624Z,100944.66
2018-05-06T05:26:25.007Z,100950.13
2018-05-06T05:28:52.391Z,100948.99
2018-05-06T05:31:19.766Z,100945.44
2018-05-06T05:33:47.146Z,100946.78
2018-05-06T05:36:14.536Z,100944.80
2018-05-06T05:38:41.927Z,100941.80
2018-05-06T05:41:09.316Z,100947.14
2018-05-06T05:43:36.692Z,100952.78
2018-05-06T05:46:04.114Z,100959.45
2018-05-06T05:48:31.500Z,100950.77
2018-05-06T05:50:58.911Z,100955.98
2018-05-06T05:53:26.291Z,100957.89
2018-05-06T05:55:53.666Z,100957.75
2018-05-06T05:58:21.071Z,100956.09
2018-05-06T06:00:48.439Z,100960.15
2018-05-06T06:03:15.827Z,100962.16
2018-05-06T06:05:43.199Z,100957.88
2018-05-06T06:08:10.586Z,100960.69
2018-05-06T06:10:37.962Z,100960.62
2018-05-06T06:13:05.357Z,100956.30
2018-05-06T06:15:32.783Z,100950.66
2018-05-06T06:18:00.118Z,100953.15
2018-05-06T06:20:27.498Z,100957.12
2018-05-06T06:22:54.875Z,100957.45
2018-05-06T06:25:22.259Z,100959.02
2018-05-06T06:27:49.640Z,100957.91
2018-05-06T06:30:17.031Z,100959.22
2018-05-06T06:32:44.407Z,100967.09
2018-05-06T06:35:11.787Z,100967.02
2018-05-06T06:37:39.171Z,100965.66
2018-05-06T06:40:06.550Z,100977.97
2018-05-06T06:42:33.935Z,100975.17
2018-05-06T06:45:01.319Z,100972.41
2018-05-06T06:47:28.700Z,100980.10
2018-05-06T06:49:56.078Z,100982.17
2018-05-06T06:52:23.551Z,100975.63
2018-05-06T06:54:50.939Z,100976.80
2018-05-06T06:57:18.322Z,100974.27
2018-05-06T06:59:45.698Z,100977.95
2018-05-06T07:02:13.086Z,100980.60
2018-05-06T07:04:40.470Z,100980.17
2018-05-06T07:07:07.850Z,100984.53
2018-05-06T07:09:35.248Z,100985.95
2018-05-06T07:12:02.619Z,100987.91
2018-05-06T07:14:29.999Z,100988.08
2018-05-06T07:16:57.379Z,100993.52
2018-05-06T07:19:24.826Z,100994.55
2018-05-06T07:21:52.150Z,100996.70
2018-05-06T07:24:19.525Z,100993.91
2018-05-06T07:26:46.914Z,100989.63
2018-05-06T07:29:14.299Z,100986.88
2018-05-06T07:31:41.744Z,100982.94
2018-05-06T07:34:09.111Z,100987.86
2018-05-06T07:36:36.488Z,100986.97
2018-05-06T07:39:03.875Z,100990.50
2018-05-06T07:41:31.291Z,100991.34
2018-05-06T07:43:58.642Z,100991.30
2018-05-06T07:46:26.028Z,100989.80
2018-05-06T07:48:53.410Z,100991.97
2018-05-06T07:51:20.787Z,100997.73
2018-05-06T07:53:48.175Z,100992.59
2018-05-06T07:56:15.550Z,100994.22
2018-05-06T07:58:42.964Z,100988.09
2018-05-06T08:01:10.331Z,100990.86
2018-05-06T08:03:37.714Z,100985.52
2018-05-06T08:06:05.102Z,100990.28
2018-05-06T08:08:32.479Z,100981.58
2018-05-06T08:10:59.859Z,100983.38
2018-05-06T08:13:27.330Z,100989.96
2018-05-06T08:15:54.706Z,100984.42
2018-05-06T08:18:22.095Z,100989.06
2018-05-06T08:20:49.502Z,100984.55
2018-05-06T08:23:16.889Z,100990.74
2018-05-06T08:25:44.278Z,100985.77
2018-05-06T08:28:11.661Z,100989.52
2018-05-06T08:30:39.038Z,100981.66
2018-05-06T08:33:06.426Z,100982.91
2018-05-06T08:35:33.815Z,100988.99
2018-05-06T08:38:01.195Z,100996.87
2018-05-06T08:40:28.771Z,100999.25
2018-05-06T08:42:56.150Z,100998.63
2018-05-06T08:45:23.893Z,101003.09
2018-05-06T08:47:51.280Z,101006.25
2018-05-06T08:50:18.662Z,101007.27
2018-05-06T08:52:46.050Z,101009.45
2018-05-06T08:55:13.435Z,101005.14
2018-05-06T08:57:40.819Z,101008.16
2018-05-06T09:00:08.198Z,101004.50
2018-05-06T09:02:35.668Z,101008.52
2018-05-06T09:05:03.031Z,101003.58
2018-05-06T09:07:30.411Z,100996.83
2018-05-06T09:09:57.797Z,101004.44
2018-05-06T09:12:25.182Z,101003.89
2018-05-06T09:14:52.563Z,101004.31
2018-05-06T09:17:19.942Z,101000.40
2018-05-06T09:19:47.356Z,101002.66
2018-05-06T09:22:14.729Z,101006.87
2018-05-06T09:24:42.110Z,101009.85
2018-05-06T09:27:09.490Z,101012.96
2018-05-06T09:29:36.874Z,101008.16
2018-05-06T09:32:04.279Z,101009.91
2018-05-06T09:34:31.664Z,101003.31
2018-05-06T09:36:59.058Z,101004.59
2018-05-06T09:39:26.443Z,100999.97
2018-05-06T09:41:53.827Z,100996.74
2018-05-06T09:44:21.267Z,100996.44
2018-05-06T09:46:48.598Z,100996.34
2018-05-06T09:49:16.008Z,100991.66
2018-05-06T09:51:43.375Z,100994.19
2018-05-06T09:54:10.766Z,100992.55
2018-05-06T09:56:38.151Z,100981.43
2018-05-06T09:59:05.536Z,100976.63
2018-05-06T10:01:33.091Z,100972.38
2018-05-06T10:04:01.664Z,100970.76
2018-05-06T10:06:29.150Z,100966.34
2018-05-06T10:08:56.614Z,100964.53
2018-05-06T10:11:24.061Z,100968.44
2018-05-06T10:13:51.510Z,100970.59
2018-05-06T10:16:18.899Z,100973.05
2018-05-06T10:18:46.290Z,100983.85
2018-05-06T10:21:13.683Z,100976.16
2018-05-06T10:23:41.086Z,100979.42
2018-05-06T10:26:08.555Z,100978.55
2018-05-06T10:28:35.879Z,100969.78
2018-05-06T10:31:03.277Z,100966.39
2018-05-06T10:33:30.651Z,100961.45
2018-05-06T10:35:58.043Z,100963.47
2018-05-06T10:38:25.490Z,100958.08
2018-05-06T10:40:52.832Z,100953.91
2018-05-06T10:43:20.245Z,100946.05
2018-05-06T10:45:47.638Z,100941.56
2018-05-06T10:48:15.042Z,100940.80
2018-05-06T10:50:42.422Z,100931.86
2018-05-06T10:53:09.823Z,100929.03
2018-05-06T10:55:37.217Z,100924.19
2018-05-06T10:58:04.653Z,100917.48
2018-05-06T11:00:32.039Z,100916.70
2018-05-06T11:02:59.477Z,100917.21
2018-05-06T11:05:26.867Z,100919.19
2018-05-06T11:07:54.283Z,100907.06
2018-05-06T11:10:21.749Z,100909.59
2018-05-06T11:12:49.051Z,100898.57
2018-05-06T11:15:16.451Z,100907.45
2018-05-06T11:17:43.839Z,100900.91
2018-05-06T11:20:11.231Z,100899.75
2018-05-06T11:22:38.617Z,100894.36
2018-05-06T11:25:06.017Z,100890.63
2018-05-06T11:27:33.407Z,100892.23
2018-05-06T11:30:00.826Z,100890.30
2018-05-06T11:32:28.202Z,100896.80
2018-05-06T11:34:55.593Z,100889.25
2018-05-06T11:37:22.984Z,100890.27
2018-05-06T11:39:50.371Z,100891.30
2018-05-06T11:42:17.766Z,100892.18
2018-05-06T11:44:45.155Z,100886.53
2018-05-06T11:47:12.566Z,100886.22
2018-05-06T11:49:39.942Z,100883.64
2018-05-06T11:52:07.330Z,100883.41
2018-05-06T11:54:34.807Z,100877.66
2018-05-06T11:57:02.194Z,100870.81
2018-05-06T11:59:29.594Z,100877.90
2018-05-06T12:01:56.971Z,100871.88
2018-05-06T12:04:24.372Z,100886.02
2018-05-06T12:06:51.754Z,100870.14
2018-05-06T12:09:19.144Z,100872.74
2018-05-06T12:11:46.671Z,100865.45
2018-05-06T12:14:14.059Z,100861.73
2018-05-06T12:16:41.450Z,100861.58
2018-05-06T12:19:08.852Z,100854.21
2018-05-06T12:21:36.735Z,100849.97
2018-05-06T12:24:04.110Z,100845.42
2018-05-06T12:26:31.598Z,100844.79
2018-05-06T12:28:58.987Z,100839.58
2018-05-06T12:31:26.383Z,100830.39
2018-05-06T12:33:53.784Z,100824.91
2018-05-06T12:36:21.203Z,100824.55
2018-05-06T12:38:48.588Z,100823.42
2018-05-06T12:41:16.014Z,100821.05
2018-05-06T12:43:43.879Z,100817.66
2018-05-06T12:46:11.393Z,100817.28
2018-05-06T12:48:38.784Z,100806.34
2018-05-06T12:51:06.178Z,100804.14
2018-05-06T12:53:34.680Z,100794.71
2018-05-06T12:56:02.157Z,100802.48
2018-05-06T12:58:29.535Z,100794.86
2018-05-06T13:00:56.951Z,100782.67
2018-05-06T13:03:24.334Z,100792.75
2018-05-06T13:05:51.742Z,100792.55
2018-05-06T13:08:19.170Z,100784.99
2018-05-06T13:10:46.563Z,100772.11
2018-05-06T13:13:13.961Z,100775.48
2018-05-06T13:15:41.375Z,100766.45
2018-05-06T13:18:08.769Z,100760.23
2018-05-06T13:20:36.174Z,100760.70
2018-05-06T13:23:03.563Z,100751.55
2018-05-06T13:25:30.955Z,100753.48
2018-05-06T13:27:58.343Z,100751.43
2018-05-06T13:30:25.739Z,100753.57
2018-05-06T13:32:53.127Z,100747.05
2018-05-06T13:35:20.514Z,100743.10
2018-05-06T13:37:47.903Z,100742.48
2018-05-06T13:40:15.297Z,100738.13
2018-05-06T13:42:42.722Z,100734.67
2018-05-06T13:45:10.172Z,100735.45
2018-05-06T13:47:37.589Z,100729.11
2018-05-06T13:50:05.000Z,100727.91
2018-05-06T13:52:32.407Z,100726.46
2018-05-06T13:54:59.791Z,100721.17
2018-05-06T13:57:27.183Z,100724.04
2018-05-06T13:59:54.576Z,100719.44
2018-05-06T14:02:21.975Z,100721.96
2018-05-06T14:04:49.413Z,100713.09
2018-05-06T14:07:16.794Z,100713.34
2018-05-06T14:09:44.195Z,100709.98
2018-05-06T14:12:11.597Z,100707.09
2018-05-06T14:14:38.982Z,100699.38
2018-05-06T14:17:06.371Z,100693.98
2018-05-06T14:19:33.755Z,100691.23
2018-05-06T14:22:01.185Z,100692.52
2018-05-06T14:24:28.575Z,100677.14
2018-05-06T14:26:56.075Z,100682.10
2018-05-06T14:29:23.458Z,100686.06
2018-05-06T14:31:50.841Z,100682.67
2018-05-06T14:34:18.238Z,100687.83
2018-05-06T14:36:45.623Z,100679.98
2018-05-06T14:39:13.019Z,100682.30
2018-05-06T14:41:40.407Z,100681.55
2018-05-06T14:44:07.828Z,100677.78
2018-05-06T14:46:47.108Z,100672.04
2018-05-06T14:49:14.503Z,100676.88
2018-05-06T14:51:41.887Z,100675.09
2018-05-06T14:54:09.282Z,100668.23
2018-05-06T14:56:36.718Z,100668.16
2018-05-06T14:59:04.114Z,100668.54
2018-05-06T15:01:31.635Z,100662.66
2018-05-06T15:03:59.019Z,100664.17
2018-05-06T15:06:26.419Z,100660.70
2018-05-06T15:08:53.819Z,100654.73
2018-05-06T15:11:21.258Z,100657.00
2018-05-06T15:13:48.654Z,100653.39
2018-05-06T15:16:16.047Z,100650.23
2018-05-06T15:18:43.439Z,100648.55
2018-05-06T15:21:10.912Z,100641.52
2018-05-06T15:23:38.219Z,100643.05
2018-05-06T15:26:05.610Z,100646.20
2018-05-06T15:28:33.026Z,100636.50
2018-05-06T15:31:00.411Z,100636.36
2018-05-06T15:33:27.804Z,100639.58
2018-05-06T15:35:55.300Z,100636.01
2018-05-06T15:38:22.703Z,100637.39
2018-05-06T15:40:50.079Z,100630.35
2018-05-06T15:43:17.472Z,100622.27
2018-05-06T15:45:44.864Z,100625.34
2018-05-06T15:48:12.302Z,100625.88
2018-05-06T15:50:39.810Z,100620.68
2018-05-06T15:53:07.139Z,100621.89
2018-05-06T15:55:34.527Z,100617.61
2018-05-06T15:58:01.919Z,100615.49
2018-05-06T16:00:29.311Z,100624.97
2018-05-06T16:03:08.540Z,100616.03
2018-05-06T16:05:35.932Z,100616.50
2018-05-06T16:08:03.347Z,100607.38
2018-05-06T16:10:30.742Z,100603.61
2018-05-06T16:12:58.142Z,100612.78
2018-05-06T16:15:25.792Z,100603.05
2018-05-06T16:17:53.160Z,100603.57
2018-05-06T16:20:20.551Z,100598.47
2018-05-06T16:22:47.986Z,100591.52
2018-05-06T16:25:15.334Z,100597.02
2018-05-06T16:27:42.736Z,100591.69
2018-05-06T16:30:10.122Z,100595.44
2018-05-06T16:32:37.506Z,100586.42
2018-05-06T16:35:04.894Z,100586.01
2018-05-06T16:37:32.285Z,100588.61
2018-05-06T16:39:59.677Z,100582.19
2018-05-06T16:42:27.089Z,100587.48
2018-05-06T16:44:54.477Z,100581.20
2018-05-06T16:47:21.863Z,100590.70
2018-05-06T16:49:49.259Z,100587.48
2018-05-06T16:52:16.638Z,100589.37
2018-05-06T16:54:44.055Z,100587.98
2018-05-06T16:57:11.754Z,100592.13
2018-05-06T16:59:39.143Z,100583.39
2018-05-06T17:02:06.526Z,100587.56
2018-05-06T17:04:33.918Z,100586.45
2018-05-06T17:07:01.409Z,100583.08
2018-05-06T17:09:28.695Z,100578.84
2018-05-06T17:11:56.078Z,100585.06
2018-05-06T17:14:23.751Z,100584.33
2018-05-06T17:16:51.138Z,100579.28
2018-05-06T17:19:18.534Z,100581.59
2018-05-06T17:21:45.915Z,100579.25
2018-05-06T17:24:13.315Z,100582.11
2018-05-06T17:26:40.707Z,100577.75
2018-05-06T17:29:08.099Z,100583.14
2018-05-06T17:31:35.483Z,100581.31
2018-05-06T17:34:02.871Z,100581.06
2018-05-06T17:36:30.259Z,100578.39
2018-05-06T17:38:57.648Z,100587.41
2018-05-06T17:41:25.042Z,100587.78
2018-05-06T17:43:52.436Z,100584.78
2018-05-06T17:46:19.800Z,100583.77
2018-05-06T17:48:47.250Z,100583.70
2018-05-06T17:51:14.627Z,100589.56
2018-05-06T17:53:42.023Z,100585.68
2018-05-06T17:56:09.403Z,100593.39
2018-05-06T17:58:36.787Z,100589.14
2018-05-06T18:01:04.166Z,100588.77
2018-05-06T18:03:31.554Z,100594.20
2018-05-06T18:05:58.935Z,100594.33
2018-05-06T18:08:26.318Z,100589.31
2018-05-06T18:10:53.702Z,100589.59
2018-05-06T18:13:21.082Z,100588.56
2018-05-06T18:15:48.467Z,100591.16
2018-05-06T18:18:15.839Z,100588.31
2018-05-06T18:20:43.235Z,100592.33
2018-05-06T18:23:10.626Z,100595.89
2018-05-06T18:25:38.006Z,100596.02
2018-05-06T18:28:05.398Z,100592.77
2018-05-06T18:30:32.805Z,100592.80
2018-05-06T18:33:00.188Z,100598.62
2018-05-06T18:35:27.572Z,100595.91
2018-05-06T18:37:54.953Z,100597.98
2018-05-06T18:40:22.362Z,100602.34
2018-05-06T18:42:49.749Z,100595.53
2018-05-06T18:45:17.127Z,100606.47
2018-05-06T18:47:44.514Z,100603.89
2018-05-06T18:50:11.898Z,100613.52
2018-05-06T18:52:39.291Z,100621.09
2018-05-06T18:55:06.704Z,100615.07
2018-05-06T18:57:34.087Z,100620.60
2018-05-06T19:00:01.470Z,100613.48
2018-05-06T19:02:28.849Z,100620.64
2018-05-06T19:04:56.239Z,100616.72
2018-05-06T19:07:23.659Z,100619.63
2018-05-06T19:09:51.068Z,100617.63
2018-05-06T19:12:18.462Z,100621.61
2018-05-06T19:14:45.855Z,100618.92
2018-05-06T19:17:13.246Z,100619.91
2018-05-06T19:19:40.632Z,100628.77
2018-05-06T19:22:08.151Z,100629.70
2018-05-06T19:24:35.539Z,100631.48
2018-05-06T19:27:02.967Z,100627.80
2018-05-06T19:29:30.464Z,100631.88
2018-05-06T19:31:57.787Z,100637.87
2018-05-06T19:34:25.220Z,100639.09
2018-05-06T19:36:52.592Z,100642.64
2018-05-06T19:39:19.991Z,100643.85
2018-05-06T19:41:47.364Z,100648.34
2018-05-06T19:44:14.743Z,100648.48
2018-05-06T19:46:42.131Z,100649.70
2018-05-06T19:49:09.879Z,100654.17
2018-05-06T19:51:37.268Z,100647.80
2018-05-06T19:54:04.655Z,100657.69
2018-05-06T19:56:32.038Z,100656.06
2018-05-06T19:58:59.431Z,100650.36
2018-05-06T20:01:26.807Z,100658.77
2018-05-06T20:03:54.191Z,100655.59
2018-05-06T20:06:21.586Z,100654.91
2018-05-06T20:08:48.958Z,100662.76
2018-05-06T20:11:16.343Z,100655.31
2018-05-06T20:13:43.753Z,100658.81
2018-05-06T20:16:11.129Z,100663.67
2018-05-06T20:18:38.508Z,100672.72
2018-05-06T20:21:05.907Z,100668.21
2018-05-06T20:23:33.303Z,100668.85
2018-05-06T20:26:00.683Z,100667.89
2018-05-06T20:28:28.078Z,100668.48
2018-05-06T20:30:55.463Z,100679.83
2018-05-06T20:33:22.864Z,100678.98
2018-05-06T20:35:50.250Z,100675.13
2018-05-06T20:38:17.660Z,100679.02
2018-05-06T20:40:45.043Z,100675.84
2018-05-06T20:43:12.448Z,100674.97
2018-05-06T20:45:39.831Z,100680.16
2018-05-06T20:48:07.223Z,100683.64
2018-05-06T20:50:34.619Z,100684.41
2018-05-06T20:53:02.059Z,100685.18
2018-05-06T20:55:29.438Z,100684.77
2018-05-06T20:57:56.827Z,100686.68
2018-05-06T21:00:24.224Z,100688.20
2018-05-06T21:02:51.607Z,100688.14
2018-05-06T21:05:19.082Z,100678.09
2018-05-06T21:07:46.401Z,100679.51
2018-05-06T21:10:13.848Z,100683.53
2018-05-06T21:12:41.244Z,100683.18
2018-05-06T21:15:08.634Z,100687.64
2018-05-06T21:17:36.027Z,100685.52
2018-05-06T21:20:03.411Z,100693.36
2018-05-06T21:22:30.800Z,100690.52
2018-05-06T21:24:58.210Z,100690.58
2018-05-06T21:27:25.583Z,100688.66
2018-05-06T21:29:52.967Z,100692.72
2018-05-06T21:32:20.365Z,100687.61
2018-05-06T21:34:47.758Z,100684.45
2018-05-06T21:37:15.179Z,100688.92
2018-05-06T21:39:42.598Z,100689.80
2018-05-06T21:42:09.942Z,100684.17
2018-05-06T21:44:37.338Z,100683.05
2018-05-06T21:47:04.723Z,100688.68
2018-05-06T21:49:32.126Z,100685.19
2018-05-06T21:51:59.516Z,100681.73
2018-05-06T21:54:26.942Z,100683.12
2018-05-06T21:56:54.294Z,100682.61
2018-05-06T21:59:21.685Z,100685.31
2018-05-06T22:01:49.078Z,100686.52
2018-05-06T22:04:16.466Z,100693.09
2018-05-06T22:06:43.859Z,100690.22
2018-05-06T22:09:11.254Z,100690.83
2018-05-06T22:11:38.638Z,100688.86
2018-05-06T22:14:06.027Z,100690.94
2018-05-06T22:16:33.411Z,100691.50
2018-05-06T22:19:00.808Z,100689.36
2018-05-06T22:21:28.207Z,100690.14
2018-05-06T22:23:55.600Z,100692.06
2018-05-06T22:26:22.994Z,100696.33
2018-05-06T22:28:50.408Z,100691.24
2018-05-06T22:31:17.796Z,100688.08
2018-05-06T22:33:45.224Z,100691.80
2018-05-06T22:36:12.619Z,100682.56
2018-05-06T22:38:40.008Z,100678.31
2018-05-06T22:41:07.398Z,100678.60
2018-05-06T22:43:34.780Z,100678.75
2018-05-06T22:46:02.178Z,100678.17
2018-05-06T22:48:29.567Z,100677.62
2018-05-06T22:50:56.959Z,100679.57
2018-05-06T22:53:24.351Z,100678.14
2018-05-06T22:55:51.743Z,100682.06
2018-05-06T22:58:19.130Z,100678.57
2018-05-06T23:00:46.533Z,100682.11
2018-05-06T23:03:13.922Z,100678.48
2018-05-06T23:05:41.307Z,100675.06
2018-05-06T23:08:08.700Z,100677.11
2018-05-06T23:10:36.084Z,100681.00
2018-05-06T23:13:03.487Z,100682.66
2018-05-06T23:15:30.878Z,100680.67
2018-05-06T23:17:58.273Z,100673.08
2018-05-06T23:20:25.674Z,100678.36
2018-05-06T23:22:53.054Z,100675.50
2018-05-06T23:25:20.479Z,100670.45
2018-05-06T23:27:47.865Z,100671.89
2018-05-06T23:30:15.262Z,100673.34
2018-05-06T23:32:42.659Z,100678.20
2018-05-06T23:35:10.063Z,100671.50
2018-05-06T23:37:37.450Z,100676.98
2018-05-06T23:40:04.839Z,100672.72
2018-05-06T23:42:32.235Z,100668.55
2018-05-06T23:44:59.618Z,100670.61
2018-05-06T23:47:27.010Z,100668.72
2018-05-06T23:49:54.405Z,100668.84
2018-05-06T23:52:21.794Z,100669.36
2018-05-06T23:54:49.196Z,100663.34
2018-05-06T23:57:16.597Z,100658.31
2018-05-06T23:59:43.963Z,100662.18
